sensor_id;sensor_type;location;lat;lon;timestamp;P1;durP1;ratioP1;P2;durP2;ratioP2
16792;SDS011;8513;42.662;23.350;2022-09-09T00:12:34;12.00;;;10.00;;
16792;SDS011;8513;42.662;23.350;2022-09-09T00:15:13;11.25;;;10.02;;
16792;SDS011;8513;42.662;23.350;2022-09-09T00:25:52;12.23;;;10.20;;
16792;SDS011;8513;42.662;23.350;2022-09-09T00:28:20;10.82;;;9.82;;
16792;SDS011;8513;42.662;23.350;2022-09-09T00:30:50;11.30;;;10.20;;
16792;SDS011;8513;42.662;23.350;2022-09-09T00:33:17;12.10;;;10.43;;
16792;SDS011;8513;42.662;23.350;2022-09-09T00:35:48;10.70;;;9.63;;
16792;SDS011;8513;42.662;23.350;2022-09-09T00:38:33;9.38;;;8.48;;
16792;SDS011;8513;42.662;23.350;2022-09-09T00:44:20;10.27;;;9.27;;
16792;SDS011;8513;42.662;23.350;2022-09-09T00:49:33;10.73;;;9.73;;
16792;SDS011;8513;42.662;23.350;2022-09-09T00:54:50;10.35;;;9.30;;
16792;SDS011;8513;42.662;23.350;2022-09-09T00:57:26;10.18;;;9.18;;
16792;SDS011;8513;42.662;23.350;2022-09-09T01:10:56;11.27;;;10.23;;
16792;SDS011;8513;42.662;23.350;2022-09-09T01:13:28;10.52;;;9.57;;
16792;SDS011;8513;42.662;23.350;2022-09-09T01:16:00;10.57;;;9.57;;
16792;SDS011;8513;42.662;23.350;2022-09-09T01:18:34;11.00;;;10.10;;
16792;SDS011;8513;42.662;23.350;2022-09-09T01:28:55;10.57;;;9.60;;
16792;SDS011;8513;42.662;23.350;2022-09-09T01:31:26;10.75;;;9.77;;
16792;SDS011;8513;42.662;23.350;2022-09-09T01:33:56;10.98;;;9.73;;
16792;SDS011;8513;42.662;23.350;2022-09-09T01:36:25;12.27;;;10.27;;
16792;SDS011;8513;42.662;23.350;2022-09-09T01:38:56;10.85;;;9.85;;
16792;SDS011;8513;42.662;23.350;2022-09-09T01:41:21;10.18;;;9.20;;
16792;SDS011;8513;42.662;23.350;2022-09-09T01:43:47;9.65;;;8.75;;
16792;SDS011;8513;42.662;23.350;2022-09-09T01:46:13;10.35;;;9.40;;
16792;SDS011;8513;42.662;23.350;2022-09-09T01:48:40;11.65;;;9.68;;
16792;SDS011;8513;42.662;23.350;2022-09-09T01:51:08;11.13;;;10.02;;
16792;SDS011;8513;42.662;23.350;2022-09-09T01:53:35;10.25;;;9.25;;
16792;SDS011;8513;42.662;23.350;2022-09-09T01:59:18;12.52;;;10.52;;
16792;SDS011;8513;42.662;23.350;2022-09-09T02:04:44;11.02;;;9.95;;
16792;SDS011;8513;42.662;23.350;2022-09-09T02:09:40;10.50;;;9.38;;
16792;SDS011;8513;42.662;23.350;2022-09-09T02:12:11;10.15;;;9.25;;
16792;SDS011;8513;42.662;23.350;2022-09-09T02:14:44;11.13;;;10.13;;
16792;SDS011;8513;42.662;23.350;2022-09-09T02:17:16;10.70;;;9.73;;
16792;SDS011;8513;42.662;23.350;2022-09-09T02:19:51;11.18;;;10.18;;
16792;SDS011;8513;42.662;23.350;2022-09-09T02:22:24;10.73;;;9.63;;
16792;SDS011;8513;42.662;23.350;2022-09-09T02:24:53;10.98;;;9.10;;
16792;SDS011;8513;42.662;23.350;2022-09-09T02:27:24;10.80;;;9.60;;
16792;SDS011;8513;42.662;23.350;2022-09-09T02:29:49;11.00;;;9.85;;
16792;SDS011;8513;42.662;23.350;2022-09-09T02:32:18;10.50;;;9.50;;
16792;SDS011;8513;42.662;23.350;2022-09-09T02:34:49;10.57;;;9.45;;
16792;SDS011;8513;42.662;23.350;2022-09-09T02:37:19;11.43;;;9.73;;
16792;SDS011;8513;42.662;23.350;2022-09-09T02:39:49;12.50;;;10.20;;
16792;SDS011;8513;42.662;23.350;2022-09-09T02:42:16;11.68;;;10.68;;
16792;SDS011;8513;42.662;23.350;2022-09-09T02:44:41;10.93;;;10.00;;
16792;SDS011;8513;42.662;23.350;2022-09-09T02:55:29;10.25;;;9.35;;
16792;SDS011;8513;42.662;23.350;2022-09-09T02:57:57;11.43;;;10.25;;
16792;SDS011;8513;42.662;23.350;2022-09-09T03:00:27;10.93;;;9.82;;
16792;SDS011;8513;42.662;23.350;2022-09-09T03:02:53;11.63;;;10.43;;
16792;SDS011;8513;42.662;23.350;2022-09-09T03:05:19;10.85;;;9.85;;
16792;SDS011;8513;42.662;23.350;2022-09-09T03:07:46;12.10;;;10.75;;
16792;SDS011;8513;42.662;23.350;2022-09-09T03:10:11;10.65;;;9.70;;
16792;SDS011;8513;42.662;23.350;2022-09-09T03:12:38;12.93;;;10.77;;
16792;SDS011;8513;42.662;23.350;2022-09-09T03:15:04;11.30;;;10.15;;
16792;SDS011;8513;42.662;23.350;2022-09-09T03:17:30;11.40;;;9.85;;
16792;SDS011;8513;42.662;23.350;2022-09-09T03:19:56;11.50;;;10.45;;
16792;SDS011;8513;42.662;23.350;2022-09-09T03:22:22;11.85;;;10.10;;
16792;SDS011;8513;42.662;23.350;2022-09-09T03:24:48;11.43;;;10.32;;
16792;SDS011;8513;42.662;23.350;2022-09-09T03:27:13;11.25;;;10.20;;
16792;SDS011;8513;42.662;23.350;2022-09-09T03:29:42;11.05;;;10.15;;
16792;SDS011;8513;42.662;23.350;2022-09-09T03:32:07;12.60;;;10.45;;
16792;SDS011;8513;42.662;23.350;2022-09-09T03:34:35;11.38;;;10.35;;
16792;SDS011;8513;42.662;23.350;2022-09-09T03:37:02;11.63;;;10.35;;
16792;SDS011;8513;42.662;23.350;2022-09-09T03:39:27;11.73;;;10.63;;
16792;SDS011;8513;42.662;23.350;2022-09-09T03:41:53;11.50;;;10.40;;
16792;SDS011;8513;42.662;23.350;2022-09-09T03:44:19;11.95;;;9.82;;
16792;SDS011;8513;42.662;23.350;2022-09-09T03:46:44;11.57;;;10.50;;
16792;SDS011;8513;42.662;23.350;2022-09-09T03:49:10;13.35;;;11.00;;
16792;SDS011;8513;42.662;23.350;2022-09-09T03:51:36;12.45;;;11.23;;
16792;SDS011;8513;42.662;23.350;2022-09-09T03:54:01;13.30;;;11.98;;
16792;SDS011;8513;42.662;23.350;2022-09-09T03:56:30;16.73;;;10.82;;
16792;SDS011;8513;42.662;23.350;2022-09-09T03:58:56;14.90;;;10.95;;
16792;SDS011;8513;42.662;23.350;2022-09-09T04:01:22;16.67;;;11.48;;
16792;SDS011;8513;42.662;23.350;2022-09-09T04:03:48;13.02;;;11.07;;
16792;SDS011;8513;42.662;23.350;2022-09-09T04:06:15;12.23;;;11.05;;
16792;SDS011;8513;42.662;23.350;2022-09-09T04:08:42;14.90;;;10.88;;
16792;SDS011;8513;42.662;23.350;2022-09-09T04:11:07;13.77;;;11.65;;
16792;SDS011;8513;42.662;23.350;2022-09-09T04:13:34;15.93;;;12.25;;
16792;SDS011;8513;42.662;23.350;2022-09-09T04:16:00;17.35;;;12.20;;
16792;SDS011;8513;42.662;23.350;2022-09-09T04:18:27;13.32;;;11.40;;
16792;SDS011;8513;42.662;23.350;2022-09-09T04:20:56;12.15;;;10.73;;
16792;SDS011;8513;42.662;23.350;2022-09-09T04:23:22;14.27;;;11.57;;
16792;SDS011;8513;42.662;23.350;2022-09-09T04:25:52;13.40;;;10.80;;
16792;SDS011;8513;42.662;23.350;2022-09-09T04:28:19;12.90;;;11.57;;
16792;SDS011;8513;42.662;23.350;2022-09-09T04:30:47;16.30;;;11.85;;
16792;SDS011;8513;42.662;23.350;2022-09-09T04:33:14;12.88;;;11.57;;
16792;SDS011;8513;42.662;23.350;2022-09-09T04:35:46;14.95;;;11.27;;
16792;SDS011;8513;42.662;23.350;2022-09-09T04:38:15;11.57;;;10.52;;
16792;SDS011;8513;42.662;23.350;2022-09-09T04:40:48;14.57;;;11.05;;
16792;SDS011;8513;42.662;23.350;2022-09-09T04:43:16;12.60;;;11.25;;
16792;SDS011;8513;42.662;23.350;2022-09-09T04:45:42;13.13;;;11.82;;
16792;SDS011;8513;42.662;23.350;2022-09-09T04:48:08;12.90;;;11.60;;
16792;SDS011;8513;42.662;23.350;2022-09-09T04:50:36;13.23;;;11.75;;
16792;SDS011;8513;42.662;23.350;2022-09-09T04:53:03;13.98;;;11.50;;
16792;SDS011;8513;42.662;23.350;2022-09-09T04:55:29;13.27;;;11.93;;
16792;SDS011;8513;42.662;23.350;2022-09-09T04:57:56;13.18;;;11.35;;
16792;SDS011;8513;42.662;23.350;2022-09-09T05:00:22;13.07;;;11.77;;
16792;SDS011;8513;42.662;23.350;2022-09-09T05:02:48;13.30;;;11.90;;
16792;SDS011;8513;42.662;23.350;2022-09-09T05:05:13;13.18;;;11.88;;
16792;SDS011;8513;42.662;23.350;2022-09-09T05:07:39;13.57;;;12.27;;
16792;SDS011;8513;42.662;23.350;2022-09-09T05:10:05;13.32;;;11.90;;
16792;SDS011;8513;42.662;23.350;2022-09-09T05:12:30;15.77;;;12.20;;
16792;SDS011;8513;42.662;23.350;2022-09-09T05:14:56;13.82;;;11.57;;
16792;SDS011;8513;42.662;23.350;2022-09-09T05:17:22;13.75;;;12.35;;
16792;SDS011;8513;42.662;23.350;2022-09-09T05:19:48;13.95;;;12.30;;
16792;SDS011;8513;42.662;23.350;2022-09-09T05:22:17;15.20;;;12.50;;
16792;SDS011;8513;42.662;23.350;2022-09-09T05:24:48;22.75;;;10.90;;
16792;SDS011;8513;42.662;23.350;2022-09-09T05:27:15;13.02;;;11.73;;
16792;SDS011;8513;42.662;23.350;2022-09-09T05:29:43;12.07;;;10.73;;
16792;SDS011;8513;42.662;23.350;2022-09-09T05:32:09;12.25;;;11.15;;
16792;SDS011;8513;42.662;23.350;2022-09-09T05:34:35;12.82;;;9.88;;
16792;SDS011;8513;42.662;23.350;2022-09-09T05:37:00;14.02;;;9.88;;
16792;SDS011;8513;42.662;23.350;2022-09-09T05:39:25;15.25;;;10.07;;
16792;SDS011;8513;42.662;23.350;2022-09-09T05:41:51;9.55;;;8.65;;
16792;SDS011;8513;42.662;23.350;2022-09-09T05:44:16;10.35;;;8.90;;
16792;SDS011;8513;42.662;23.350;2022-09-09T05:46:42;11.02;;;9.88;;
16792;SDS011;8513;42.662;23.350;2022-09-09T05:49:08;10.43;;;9.43;;
16792;SDS011;8513;42.662;23.350;2022-09-09T05:51:33;12.32;;;9.65;;
16792;SDS011;8513;42.662;23.350;2022-09-09T05:53:59;10.48;;;9.48;;
16792;SDS011;8513;42.662;23.350;2022-09-09T05:56:25;12.65;;;8.93;;
16792;SDS011;8513;42.662;23.350;2022-09-09T05:58:53;10.25;;;9.30;;
16792;SDS011;8513;42.662;23.350;2022-09-09T06:01:20;9.80;;;8.52;;
16792;SDS011;8513;42.662;23.350;2022-09-09T06:03:51;9.57;;;8.57;;
16792;SDS011;8513;42.662;23.350;2022-09-09T06:06:24;9.02;;;8.15;;
16792;SDS011;8513;42.662;23.350;2022-09-09T06:08:52;12.32;;;8.50;;
16792;SDS011;8513;42.662;23.350;2022-09-09T06:11:22;9.30;;;7.95;;
16792;SDS011;8513;42.662;23.350;2022-09-09T06:13:52;9.45;;;8.38;;
16792;SDS011;8513;42.662;23.350;2022-09-09T06:16:20;8.73;;;7.82;;
16792;SDS011;8513;42.662;23.350;2022-09-09T06:18:50;9.48;;;8.50;;
16792;SDS011;8513;42.662;23.350;2022-09-09T06:21:23;11.30;;;7.93;;
16792;SDS011;8513;42.662;23.350;2022-09-09T06:23:50;10.77;;;8.70;;
16792;SDS011;8513;42.662;23.350;2022-09-09T06:28:52;13.50;;;9.43;;
16792;SDS011;8513;42.662;23.350;2022-09-09T06:31:19;9.60;;;8.27;;
16792;SDS011;8513;42.662;23.350;2022-09-09T06:33:46;11.63;;;8.65;;
16792;SDS011;8513;42.662;23.350;2022-09-09T06:36:47;9.23;;;8.25;;
16792;SDS011;8513;42.662;23.350;2022-09-09T06:39:06;10.18;;;8.80;;
16792;SDS011;8513;42.662;23.350;2022-09-09T06:41:32;11.77;;;9.02;;
16792;SDS011;8513;42.662;23.350;2022-09-09T06:43:58;9.75;;;8.50;;
16792;SDS011;8513;42.662;23.350;2022-09-09T06:46:24;9.90;;;8.93;;
16792;SDS011;8513;42.662;23.350;2022-09-09T06:48:55;9.63;;;8.60;;
16792;SDS011;8513;42.662;23.350;2022-09-09T06:51:22;9.65;;;8.02;;
16792;SDS011;8513;42.662;23.350;2022-09-09T06:53:51;10.35;;;9.25;;
16792;SDS011;8513;42.662;23.350;2022-09-09T06:56:19;13.32;;;9.07;;
16792;SDS011;8513;42.662;23.350;2022-09-09T06:58:50;11.38;;;9.07;;
16792;SDS011;8513;42.662;23.350;2022-09-09T07:01:17;11.75;;;8.15;;
16792;SDS011;8513;42.662;23.350;2022-09-09T07:03:48;10.38;;;7.38;;
16792;SDS011;8513;42.662;23.350;2022-09-09T07:06:16;7.80;;;7.00;;
16792;SDS011;8513;42.662;23.350;2022-09-09T07:08:56;8.98;;;7.32;;
16792;SDS011;8513;42.662;23.350;2022-09-09T07:11:25;8.07;;;7.32;;
16792;SDS011;8513;42.662;23.350;2022-09-09T07:13:52;8.38;;;7.63;;
16792;SDS011;8513;42.662;23.350;2022-09-09T07:16:19;8.63;;;7.53;;
16792;SDS011;8513;42.662;23.350;2022-09-09T07:18:45;8.18;;;7.47;;
16792;SDS011;8513;42.662;23.350;2022-09-09T07:21:12;8.25;;;7.45;;
16792;SDS011;8513;42.662;23.350;2022-09-09T07:23:39;11.20;;;7.95;;
16792;SDS011;8513;42.662;23.350;2022-09-09T07:26:10;9.25;;;7.38;;
16792;SDS011;8513;42.662;23.350;2022-09-09T07:28:38;9.77;;;6.82;;
16792;SDS011;8513;42.662;23.350;2022-09-09T07:31:07;8.10;;;6.70;;
16792;SDS011;8513;42.662;23.350;2022-09-09T07:33:38;11.45;;;6.75;;
16792;SDS011;8513;42.662;23.350;2022-09-09T07:38:58;8.23;;;7.30;;
16792;SDS011;8513;42.662;23.350;2022-09-09T07:41:26;8.82;;;7.35;;
16792;SDS011;8513;42.662;23.350;2022-09-09T07:43:53;9.18;;;7.10;;
16792;SDS011;8513;42.662;23.350;2022-09-09T07:46:19;8.88;;;6.50;;
16792;SDS011;8513;42.662;23.350;2022-09-09T07:48:50;7.35;;;6.63;;
16792;SDS011;8513;42.662;23.350;2022-09-09T07:51:20;8.68;;;6.50;;
16792;SDS011;8513;42.662;23.350;2022-09-09T07:53:47;7.00;;;5.93;;
16792;SDS011;8513;42.662;23.350;2022-09-09T07:56:15;10.77;;;5.75;;
16792;SDS011;8513;42.662;23.350;2022-09-09T07:58:42;9.63;;;6.25;;
16792;SDS011;8513;42.662;23.350;2022-09-09T08:01:12;6.60;;;6.00;;
16792;SDS011;8513;42.662;23.350;2022-09-09T08:03:53;9.10;;;5.68;;
16792;SDS011;8513;42.662;23.350;2022-09-09T08:06:20;6.00;;;5.40;;
16792;SDS011;8513;42.662;23.350;2022-09-09T08:08:49;5.75;;;5.25;;
16792;SDS011;8513;42.662;23.350;2022-09-09T08:11:15;6.75;;;5.35;;
16792;SDS011;8513;42.662;23.350;2022-09-09T08:13:42;5.93;;;5.32;;
16792;SDS011;8513;42.662;23.350;2022-09-09T08:18:34;7.32;;;5.45;;
16792;SDS011;8513;42.662;23.350;2022-09-09T08:21:07;6.68;;;5.57;;
16792;SDS011;8513;42.662;23.350;2022-09-09T08:23:37;7.70;;;5.13;;
16792;SDS011;8513;42.662;23.350;2022-09-09T08:26:10;6.78;;;5.43;;
16792;SDS011;8513;42.662;23.350;2022-09-09T08:28:37;7.43;;;5.35;;
16792;SDS011;8513;42.662;23.350;2022-09-09T08:31:13;6.40;;;5.22;;
16792;SDS011;8513;42.662;23.350;2022-09-09T08:33:41;5.97;;;4.97;;
16792;SDS011;8513;42.662;23.350;2022-09-09T08:36:11;6.95;;;5.63;;
16792;SDS011;8513;42.662;23.350;2022-09-09T08:38:41;7.47;;;5.28;;
16792;SDS011;8513;42.662;23.350;2022-09-09T08:41:15;6.47;;;5.47;;
16792;SDS011;8513;42.662;23.350;2022-09-09T08:52:41;9.40;;;6.18;;
16792;SDS011;8513;42.662;23.350;2022-09-09T08:58:02;6.00;;;5.40;;
16792;SDS011;8513;42.662;23.350;2022-09-09T09:09:21;5.97;;;5.32;;
16792;SDS011;8513;42.662;23.350;2022-09-09T09:11:56;5.55;;;4.93;;
16792;SDS011;8513;42.662;23.350;2022-09-09T09:14:27;6.28;;;5.22;;
16792;SDS011;8513;42.662;23.350;2022-09-09T09:17:02;6.72;;;5.38;;
16792;SDS011;8513;42.662;23.350;2022-09-09T09:19:32;6.40;;;5.43;;
16792;SDS011;8513;42.662;23.350;2022-09-09T09:27:31;8.88;;;5.80;;
16792;SDS011;8513;42.662;23.350;2022-09-09T09:30:00;8.55;;;5.32;;
16792;SDS011;8513;42.662;23.350;2022-09-09T09:32:36;6.82;;;5.82;;
16792;SDS011;8513;42.662;23.350;2022-09-09T09:35:06;6.20;;;5.70;;
16792;SDS011;8513;42.662;23.350;2022-09-09T09:37:36;7.65;;;5.80;;
16792;SDS011;8513;42.662;23.350;2022-09-09T09:40:12;5.28;;;4.78;;
16792;SDS011;8513;42.662;23.350;2022-09-09T09:45:34;11.40;;;5.60;;
16792;SDS011;8513;42.662;23.350;2022-09-09T09:48:09;6.88;;;5.28;;
16792;SDS011;8513;42.662;23.350;2022-09-09T09:50:39;7.50;;;5.95;;
16792;SDS011;8513;42.662;23.350;2022-09-09T09:53:39;9.82;;;5.15;;
16792;SDS011;8513;42.662;23.350;2022-09-09T09:56:30;8.07;;;5.50;;
16792;SDS011;8513;42.662;23.350;2022-09-09T09:58:57;9.20;;;5.32;;
16792;SDS011;8513;42.662;23.350;2022-09-09T10:04:12;8.02;;;5.88;;
16792;SDS011;8513;42.662;23.350;2022-09-09T10:06:45;7.82;;;5.10;;
16792;SDS011;8513;42.662;23.350;2022-09-09T10:09:26;7.60;;;5.97;;
16792;SDS011;8513;42.662;23.350;2022-09-09T10:14:44;10.40;;;6.10;;
16792;SDS011;8513;42.662;23.350;2022-09-09T10:22:35;6.40;;;5.63;;
16792;SDS011;8513;42.662;23.350;2022-09-09T10:33:59;7.85;;;5.57;;
16792;SDS011;8513;42.662;23.350;2022-09-09T10:36:49;7.82;;;6.20;;
16792;SDS011;8513;42.662;23.350;2022-09-09T10:39:35;10.65;;;6.47;;
16792;SDS011;8513;42.662;23.350;2022-09-09T10:42:14;6.72;;;5.93;;
16792;SDS011;8513;42.662;23.350;2022-09-09T10:50:18;7.70;;;6.15;;
16792;SDS011;8513;42.662;23.350;2022-09-09T10:55:37;10.43;;;6.80;;
16792;SDS011;8513;42.662;23.350;2022-09-09T10:58:08;6.65;;;5.82;;
16792;SDS011;8513;42.662;23.350;2022-09-09T11:00:47;7.95;;;5.68;;
16792;SDS011;8513;42.662;23.350;2022-09-09T11:03:24;9.05;;;6.88;;
16792;SDS011;8513;42.662;23.350;2022-09-09T11:05:53;10.32;;;6.60;;
16792;SDS011;8513;42.662;23.350;2022-09-09T11:08:26;7.60;;;6.18;;
16792;SDS011;8513;42.662;23.350;2022-09-09T11:21:53;11.77;;;7.32;;
16792;SDS011;8513;42.662;23.350;2022-09-09T11:24:42;8.93;;;7.85;;
16792;SDS011;8513;42.662;23.350;2022-09-09T11:27:33;9.80;;;7.50;;
16792;SDS011;8513;42.662;23.350;2022-09-09T11:32:47;7.88;;;6.95;;
16792;SDS011;8513;42.662;23.350;2022-09-09T11:38:41;8.48;;;6.93;;
16792;SDS011;8513;42.662;23.350;2022-09-09T11:41:11;7.88;;;7.18;;
16792;SDS011;8513;42.662;23.350;2022-09-09T11:46:08;10.38;;;7.57;;
16792;SDS011;8513;42.662;23.350;2022-09-09T11:48:39;10.82;;;7.63;;
16792;SDS011;8513;42.662;23.350;2022-09-09T11:53:52;8.77;;;7.15;;
16792;SDS011;8513;42.662;23.350;2022-09-09T11:56:41;11.88;;;7.93;;
16792;SDS011;8513;42.662;23.350;2022-09-09T11:59:25;9.00;;;7.90;;
16792;SDS011;8513;42.662;23.350;2022-09-09T12:04:28;9.70;;;7.53;;
16792;SDS011;8513;42.662;23.350;2022-09-09T12:15:00;8.95;;;7.07;;
16792;SDS011;8513;42.662;23.350;2022-09-09T12:17:31;10.98;;;7.95;;
16792;SDS011;8513;42.662;23.350;2022-09-09T12:28:22;10.30;;;8.07;;
16792;SDS011;8513;42.662;23.350;2022-09-09T12:31:06;11.07;;;8.27;;
16792;SDS011;8513;42.662;23.350;2022-09-09T12:33:39;9.85;;;7.82;;
16792;SDS011;8513;42.662;23.350;2022-09-09T12:36:11;10.38;;;8.07;;
16792;SDS011;8513;42.662;23.350;2022-09-09T12:38:41;9.23;;;8.05;;
16792;SDS011;8513;42.662;23.350;2022-09-09T12:43:50;9.90;;;7.45;;
16792;SDS011;8513;42.662;23.350;2022-09-09T12:46:41;11.05;;;7.90;;
16792;SDS011;8513;42.662;23.350;2022-09-09T12:52:01;10.55;;;8.70;;
16792;SDS011;8513;42.662;23.350;2022-09-09T12:54:29;16.80;;;8.80;;
16792;SDS011;8513;42.662;23.350;2022-09-09T12:56:55;19.95;;;8.90;;
16792;SDS011;8513;42.662;23.350;2022-09-09T12:59:25;14.77;;;7.68;;
16792;SDS011;8513;42.662;23.350;2022-09-09T13:01:58;9.88;;;7.60;;
16792;SDS011;8513;42.662;23.350;2022-09-09T13:04:24;9.90;;;7.70;;
16792;SDS011;8513;42.662;23.350;2022-09-09T13:06:49;12.23;;;7.50;;
16792;SDS011;8513;42.662;23.350;2022-09-09T13:09:17;12.18;;;8.48;;
16792;SDS011;8513;42.662;23.350;2022-09-09T13:11:50;11.45;;;7.85;;
16792;SDS011;8513;42.662;23.350;2022-09-09T13:14:31;13.93;;;7.75;;
16792;SDS011;8513;42.662;23.350;2022-09-09T13:17:03;11.35;;;7.85;;
16792;SDS011;8513;42.662;23.350;2022-09-09T13:19:30;11.38;;;7.93;;
16792;SDS011;8513;42.662;23.350;2022-09-09T13:22:00;11.05;;;7.63;;
16792;SDS011;8513;42.662;23.350;2022-09-09T13:24:38;16.25;;;8.60;;
16792;SDS011;8513;42.662;23.350;2022-09-09T13:27:25;11.25;;;8.07;;
16792;SDS011;8513;42.662;23.350;2022-09-09T13:29:54;11.02;;;7.70;;
16792;SDS011;8513;42.662;23.350;2022-09-09T13:32:22;10.40;;;7.57;;
16792;SDS011;8513;42.662;23.350;2022-09-09T13:34:52;11.25;;;8.60;;
16792;SDS011;8513;42.662;23.350;2022-09-09T13:37:26;14.02;;;7.97;;
16792;SDS011;8513;42.662;23.350;2022-09-09T13:40:02;8.65;;;7.85;;
16792;SDS011;8513;42.662;23.350;2022-09-09T13:42:31;10.52;;;7.65;;
16792;SDS011;8513;42.662;23.350;2022-09-09T13:45:02;12.70;;;8.93;;
16792;SDS011;8513;42.662;23.350;2022-09-09T13:47:33;9.65;;;7.93;;
16792;SDS011;8513;42.662;23.350;2022-09-09T13:50:14;9.00;;;7.63;;
16792;SDS011;8513;42.662;23.350;2022-09-09T13:52:58;12.52;;;8.57;;
16792;SDS011;8513;42.662;23.350;2022-09-09T13:55:25;9.23;;;7.75;;
16792;SDS011;8513;42.662;23.350;2022-09-09T13:57:55;9.43;;;8.05;;
16792;SDS011;8513;42.662;23.350;2022-09-09T14:00:22;11.43;;;8.52;;
16792;SDS011;8513;42.662;23.350;2022-09-09T14:02:49;10.27;;;7.93;;
16792;SDS011;8513;42.662;23.350;2022-09-09T14:05:15;13.80;;;8.07;;
16792;SDS011;8513;42.662;23.350;2022-09-09T14:07:44;10.35;;;7.63;;
16792;SDS011;8513;42.662;23.350;2022-09-09T14:10:10;8.63;;;7.70;;
16792;SDS011;8513;42.662;23.350;2022-09-09T14:12:36;9.10;;;7.53;;
16792;SDS011;8513;42.662;23.350;2022-09-09T14:15:03;12.90;;;6.85;;
16792;SDS011;8513;42.662;23.350;2022-09-09T14:17:29;9.27;;;7.07;;
16792;SDS011;8513;42.662;23.350;2022-09-09T14:19:55;10.20;;;7.25;;
16792;SDS011;8513;42.662;23.350;2022-09-09T14:22:21;11.18;;;6.82;;
16792;SDS011;8513;42.662;23.350;2022-09-09T14:24:47;9.23;;;6.68;;
16792;SDS011;8513;42.662;23.350;2022-09-09T14:27:14;9.93;;;7.18;;
16792;SDS011;8513;42.662;23.350;2022-09-09T14:29:39;10.40;;;7.60;;
16792;SDS011;8513;42.662;23.350;2022-09-09T14:32:05;12.20;;;7.90;;
16792;SDS011;8513;42.662;23.350;2022-09-09T14:34:31;13.40;;;7.85;;
16792;SDS011;8513;42.662;23.350;2022-09-09T14:36:57;8.85;;;6.93;;
16792;SDS011;8513;42.662;23.350;2022-09-09T14:39:23;12.00;;;7.63;;
16792;SDS011;8513;42.662;23.350;2022-09-09T14:41:48;13.32;;;8.18;;
16792;SDS011;8513;42.662;23.350;2022-09-09T14:44:14;10.07;;;7.85;;
16792;SDS011;8513;42.662;23.350;2022-09-09T14:46:41;10.80;;;7.50;;
16792;SDS011;8513;42.662;23.350;2022-09-09T14:49:07;12.45;;;7.90;;
16792;SDS011;8513;42.662;23.350;2022-09-09T14:51:35;13.25;;;7.57;;
16792;SDS011;8513;42.662;23.350;2022-09-09T14:54:01;10.07;;;7.93;;
16792;SDS011;8513;42.662;23.350;2022-09-09T14:56:27;11.07;;;7.57;;
16792;SDS011;8513;42.662;23.350;2022-09-09T14:58:56;13.40;;;7.90;;
16792;SDS011;8513;42.662;23.350;2022-09-09T15:01:23;13.80;;;11.60;;
16792;SDS011;8513;42.662;23.350;2022-09-09T15:03:53;10.48;;;7.60;;
16792;SDS011;8513;42.662;23.350;2022-09-09T15:06:20;9.85;;;8.15;;
16792;SDS011;8513;42.662;23.350;2022-09-09T15:08:49;12.75;;;7.95;;
16792;SDS011;8513;42.662;23.350;2022-09-09T15:11:17;10.15;;;7.95;;
16792;SDS011;8513;42.662;23.350;2022-09-09T15:13:43;9.25;;;8.10;;
16792;SDS011;8513;42.662;23.350;2022-09-09T15:16:10;10.23;;;8.07;;
16792;SDS011;8513;42.662;23.350;2022-09-09T15:18:40;9.43;;;7.65;;
16792;SDS011;8513;42.662;23.350;2022-09-09T15:21:10;12.30;;;8.30;;
16792;SDS011;8513;42.662;23.350;2022-09-09T15:23:36;11.60;;;7.70;;
16792;SDS011;8513;42.662;23.350;2022-09-09T15:26:03;12.73;;;7.75;;
16792;SDS011;8513;42.662;23.350;2022-09-09T15:28:29;10.85;;;8.27;;
16792;SDS011;8513;42.662;23.350;2022-09-09T15:30:57;14.00;;;8.70;;
16792;SDS011;8513;42.662;23.350;2022-09-09T15:33:23;12.88;;;8.57;;
16792;SDS011;8513;42.662;23.350;2022-09-09T15:35:48;11.68;;;8.77;;
16792;SDS011;8513;42.662;23.350;2022-09-09T15:38:15;12.85;;;8.50;;
16792;SDS011;8513;42.662;23.350;2022-09-09T15:40:42;10.43;;;8.20;;
16792;SDS011;8513;42.662;23.350;2022-09-09T15:43:08;8.77;;;7.78;;
16792;SDS011;8513;42.662;23.350;2022-09-09T15:45:35;9.05;;;7.70;;
16792;SDS011;8513;42.662;23.350;2022-09-09T15:48:02;8.35;;;7.40;;
16792;SDS011;8513;42.662;23.350;2022-09-09T15:50:28;12.52;;;7.72;;
16792;SDS011;8513;42.662;23.350;2022-09-09T15:52:57;12.80;;;7.72;;
16792;SDS011;8513;42.662;23.350;2022-09-09T15:55:23;7.95;;;7.20;;
16792;SDS011;8513;42.662;23.350;2022-09-09T15:57:49;9.27;;;7.95;;
16792;SDS011;8513;42.662;23.350;2022-09-09T16:00:14;9.43;;;7.97;;
16792;SDS011;8513;42.662;23.350;2022-09-09T16:02:40;8.73;;;7.47;;
16792;SDS011;8513;42.662;23.350;2022-09-09T16:05:05;12.18;;;8.13;;
16792;SDS011;8513;42.662;23.350;2022-09-09T16:07:31;11.02;;;7.88;;
16792;SDS011;8513;42.662;23.350;2022-09-09T16:09:57;14.55;;;8.00;;
16792;SDS011;8513;42.662;23.350;2022-09-09T16:12:25;15.05;;;9.30;;
16792;SDS011;8513;42.662;23.350;2022-09-09T16:14:51;14.23;;;9.15;;
16792;SDS011;8513;42.662;23.350;2022-09-09T16:17:17;13.88;;;8.68;;
16792;SDS011;8513;42.662;23.350;2022-09-09T16:19:44;14.68;;;9.13;;
16792;SDS011;8513;42.662;23.350;2022-09-09T16:22:10;12.45;;;8.20;;
16792;SDS011;8513;42.662;23.350;2022-09-09T16:24:36;15.00;;;10.13;;
16792;SDS011;8513;42.662;23.350;2022-09-09T16:27:01;9.65;;;8.40;;
16792;SDS011;8513;42.662;23.350;2022-09-09T16:29:27;15.15;;;9.77;;
16792;SDS011;8513;42.662;23.350;2022-09-09T16:31:52;12.88;;;9.00;;
16792;SDS011;8513;42.662;23.350;2022-09-09T16:34:19;17.23;;;9.63;;
16792;SDS011;8513;42.662;23.350;2022-09-09T16:36:45;13.48;;;11.50;;
16792;SDS011;8513;42.662;23.350;2022-09-09T16:39:13;17.65;;;10.60;;
16792;SDS011;8513;42.662;23.350;2022-09-09T16:41:40;13.05;;;10.10;;
16792;SDS011;8513;42.662;23.350;2022-09-09T16:44:07;19.10;;;11.35;;
16792;SDS011;8513;42.662;23.350;2022-09-09T16:46:36;15.32;;;10.23;;
16792;SDS011;8513;42.662;23.350;2022-09-09T16:49:07;14.75;;;10.38;;
16792;SDS011;8513;42.662;23.350;2022-09-09T16:51:44;17.90;;;10.82;;
16792;SDS011;8513;42.662;23.350;2022-09-09T16:54:12;16.75;;;10.95;;
16792;SDS011;8513;42.662;23.350;2022-09-09T16:56:39;13.68;;;11.15;;
16792;SDS011;8513;42.662;23.350;2022-09-09T16:59:10;15.10;;;10.75;;
16792;SDS011;8513;42.662;23.350;2022-09-09T17:01:44;18.60;;;11.55;;
16792;SDS011;8513;42.662;23.350;2022-09-09T17:04:12;19.08;;;11.13;;
16792;SDS011;8513;42.662;23.350;2022-09-09T17:06:41;16.80;;;10.57;;
16792;SDS011;8513;42.662;23.350;2022-09-09T17:09:08;23.63;;;11.82;;
16792;SDS011;8513;42.662;23.350;2022-09-09T17:11:35;17.65;;;10.20;;
16792;SDS011;8513;42.662;23.350;2022-09-09T17:14:02;13.43;;;9.70;;
16792;SDS011;8513;42.662;23.350;2022-09-09T17:16:29;14.75;;;9.75;;
16792;SDS011;8513;42.662;23.350;2022-09-09T17:18:56;16.60;;;10.15;;
16792;SDS011;8513;42.662;23.350;2022-09-09T17:21:23;14.95;;;10.30;;
16792;SDS011;8513;42.662;23.350;2022-09-09T17:23:51;13.98;;;10.30;;
16792;SDS011;8513;42.662;23.350;2022-09-09T17:26:19;12.75;;;10.38;;
16792;SDS011;8513;42.662;23.350;2022-09-09T17:28:46;14.95;;;10.23;;
16792;SDS011;8513;42.662;23.350;2022-09-09T17:31:13;17.15;;;11.48;;
16792;SDS011;8513;42.662;23.350;2022-09-09T17:33:41;20.95;;;13.43;;
16792;SDS011;8513;42.662;23.350;2022-09-09T17:36:18;27.15;;;16.05;;
16792;SDS011;8513;42.662;23.350;2022-09-09T17:38:50;16.05;;;14.20;;
16792;SDS011;8513;42.662;23.350;2022-09-09T17:41:24;19.08;;;13.55;;
16792;SDS011;8513;42.662;23.350;2022-09-09T17:43:51;17.88;;;13.55;;